Time;durP1;ratioP1;P1;durP2;ratioP2;P2;SDS_P1;SDS_P2;PMS_P1;PMS_P2;Temp;Humidity;BMP_temperature;BMP_pressure;BME280_temperature;BME280_humidity;BME280_pressure;Samples;Min_cycle;Max_cycle;Signal;HPM_P1;HPM_P2
2021/04/28 00:01:22;;;;;;;8.57;5.18;;;4.80;78.70;;;;;;5100814;28;20042;-62
2021/04/28 00:03:48;;;;;;;6.90;4.97;;;4.80;78.40;;;;;;5102210;28;20418;-63
2021/04/28 00:06:13;;;;;;;7.40;4.80;;;4.80;78.40;;;;;;5091395;28;20036;-62
2021/04/28 00:08:39;;;;;;;6.88;4.93;;;4.70;77.50;;;;;;5104414;28;20039;-62
2021/04/28 00:11:05;;;;;;;8.30;5.00;;;4.80;77.30;;;;;;5101803;28;20433;-62
2021/04/28 00:13:31;;;;;;;7.82;5.03;;;4.80;77.00;;;;;;5098843;28;20032;-62
2021/04/28 00:15:57;;;;;;;7.50;5.07;;;4.70;76.60;;;;;;5089069;28;20036;-62
2021/04/28 00:18:27;;;;;;;6.35;4.82;;;4.70;76.70;;;;;;5103188;28;20168;-62
2021/04/28 00:20:53;;;;;;;6.75;4.60;;;4.70;75.80;;;;;;5102021;28;20040;-62
2021/04/28 00:23:19;;;;;;;5.45;4.32;;;4.70;75.30;;;;;;5091390;28;20127;-62
2021/04/28 00:25:46;;;;;;;6.35;5.00;;;4.70;74.20;;;;;;5095477;28;20135;-62
2021/04/28 00:28:12;;;;;;;5.75;4.18;;;4.70;75.30;;;;;;5098186;28;20047;-62
2021/04/28 00:30:39;;;;;;;9.18;5.03;;;4.60;74.20;;;;;;5107094;28;20040;-62
2021/04/28 00:33:05;;;;;;;5.82;4.85;;;4.60;73.80;;;;;;5094317;28;20484;-62
2021/04/28 00:35:32;;;;;;;7.13;4.75;;;4.50;74.10;;;;;;5106974;28;20150;-62
2021/04/28 00:37:57;;;;;;;8.15;4.57;;;4.50;73.20;;;;;;5091143;28;20039;-62
2021/04/28 00:40:32;;;;;;;5.22;4.43;;;4.60;73.60;;;;;;5096051;28;20028;-62
2021/04/28 00:42:59;;;;;;;7.28;4.10;;;4.50;73.30;;;;;;5083065;28;20024;-62
2021/04/28 00:45:27;;;;;;;4.53;4.13;;;4.50;72.90;;;;;;5098790;28;20067;-62
2021/04/28 00:47:54;;;;;;;6.88;4.90;;;4.50;72.60;;;;;;5095916;28;20040;-63
2021/04/28 00:50:42;;;;;;;4.80;3.95;;;4.40;72.40;;;;;;5103091;28;20044;-62
2021/04/28 00:53:09;;;;;;;8.60;4.40;;;4.40;72.40;;;;;;5110022;28;20150;-62
2021/04/28 00:55:35;;;;;;;5.97;4.40;;;4.40;72.30;;;;;;5109926;28;20031;-62
2021/04/28 00:58:04;;;;;;;6.68;4.47;;;4.40;71.00;;;;;;5103483;28;20042;-63
2021/04/28 01:00:30;;;;;;;6.85;4.05;;;4.40;70.90;;;;;;5109865;28;20040;-63
2021/04/28 01:02:56;;;;;;;4.80;4.18;;;4.40;71.50;;;;;;5105795;28;20392;-63
2021/04/28 01:05:22;;;;;;;4.75;3.65;;;4.40;70.70;;;;;;5105414;28;20046;-64
2021/04/28 01:07:50;;;;;;;6.20;3.80;;;4.40;70.50;;;;;;5094510;28;20024;-63
2021/04/28 01:10:24;;;;;;;8.90;3.92;;;4.30;69.40;;;;;;5109058;28;20067;-64
2021/04/28 01:12:51;;;;;;;6.68;3.65;;;4.30;69.60;;;;;;5103196;28;20036;-63
2021/04/28 01:15:19;;;;;;;6.28;4.10;;;4.30;69.80;;;;;;5108123;28;20040;-63
2021/04/28 01:17:45;;;;;;;5.45;4.07;;;4.30;70.40;;;;;;5094924;28;20036;-63
2021/04/28 01:20:14;;;;;;;5.20;4.10;;;4.20;70.80;;;;;;5095707;28;20546;-63
2021/04/28 01:22:41;;;;;;;7.72;4.10;;;4.20;71.40;;;;;;5104296;27;20040;-63
2021/04/28 01:25:11;;;;;;;4.95;3.63;;;4.10;71.50;;;;;;5102001;28;20043;-64
2021/04/28 01:27:39;;;;;;;5.82;4.10;;;4.00;70.20;;;;;;5104021;28;20040;-64
2021/04/28 01:30:07;;;;;;;5.07;4.53;;;4.10;72.20;;;;;;5092031;28;20079;-64
2021/04/28 01:32:34;;;;;;;7.90;4.00;;;4.00;72.60;;;;;;5092549;28;20047;-64
2021/04/28 01:35:01;;;;;;;5.53;4.13;;;4.00;71.40;;;;;;5099238;28;20035;-64
2021/04/28 01:37:30;;;;;;;6.82;4.45;;;4.00;72.50;;;;;;5107738;28;20040;-64
2021/04/28 01:39:56;;;;;;;6.32;4.30;;;3.90;71.80;;;;;;5095466;28;20027;-64
2021/04/28 01:42:23;;;;;;;6.75;4.00;;;3.90;70.40;;;;;;5109072;28;20104;-64
2021/04/28 01:44:50;;;;;;;4.43;3.63;;;3.80;70.00;;;;;;5087994;28;20028;-63
2021/04/28 01:47:19;;;;;;;6.00;3.78;;;3.80;70.10;;;;;;5090731;28;20062;-64
2021/04/28 01:49:46;;;;;;;6.75;3.75;;;3.80;70.00;;;;;;5109293;27;20040;-64
2021/04/28 01:52:13;;;;;;;7.57;3.75;;;3.70;70.30;;;;;;5092304;28;20046;-64
2021/04/28 01:54:38;;;;;;;4.78;3.20;;;3.70;70.30;;;;;;5105034;28;20035;-64
2021/04/28 01:57:06;;;;;;;5.18;3.72;;;3.60;70.10;;;;;;5101542;27;20477;-64
2021/04/28 01:59:32;;;;;;;5.05;3.70;;;3.60;70.40;;;;;;5090396;28;20054;-64
2021/04/28 02:02:02;;;;;;;6.60;4.03;;;3.50;71.00;;;;;;5103387;28;20044;-64
2021/04/28 02:04:29;;;;;;;4.30;3.50;;;3.50;71.00;;;;;;5099778;28;20028;-64
2021/04/28 02:06:55;;;;;;;5.70;3.70;;;3.40;70.70;;;;;;5109678;28;20063;-64
2021/04/28 02:09:21;;;;;;;5.78;3.65;;;3.40;71.70;;;;;;5105669;28;20067;-64
2021/04/28 02:11:46;;;;;;;3.45;3.15;;;3.30;71.70;;;;;;5107211;28;20381;-64
2021/04/28 02:14:15;;;;;;;5.18;3.30;;;3.30;70.90;;;;;;5090748;28;20133;-64
2021/04/28 02:16:42;;;;;;;6.90;3.70;;;3.20;71.60;;;;;;5094898;28;20086;-64
2021/04/28 02:19:10;;;;;;;4.82;3.50;;;3.20;72.10;;;;;;5092369;27;20573;-64
2021/04/28 02:21:42;;;;;;;4.30;3.53;;;3.20;71.90;;;;;;5101322;28;20044;-64
2021/04/28 02:24:10;;;;;;;6.07;3.50;;;3.10;72.60;;;;;;5101237;28;20040;-64
2021/04/28 02:26:36;;;;;;;4.25;3.35;;;3.00;71.40;;;;;;5111297;28;20051;-63
2021/04/28 02:29:02;;;;;;;4.88;3.05;;;3.00;72.50;;;;;;5103316;28;20044;-64
2021/04/28 02:31:29;;;;;;;6.22;3.40;;;3.00;71.70;;;;;;5085287;28;20048;-64
2021/04/28 02:33:55;;;;;;;6.18;3.17;;;2.90;71.20;;;;;;5071811;28;20055;-64
2021/04/28 02:36:22;;;;;;;4.53;3.08;;;3.00;72.10;;;;;;5100814;28;20028;-64
2021/04/28 02:38:58;;;;;;;4.75;3.47;;;2.90;71.30;;;;;;5103743;28;20041;-64
2021/04/28 02:41:24;;;;;;;3.38;3.08;;;2.90;71.70;;;;;;5110872;28;20035;-64
2021/04/28 02:43:52;;;;;;;4.13;3.50;;;2.80;71.90;;;;;;5098367;28;20051;-64
2021/04/28 02:46:19;;;;;;;3.50;3.20;;;2.90;71.80;;;;;;5089043;28;20036;-64
2021/04/28 02:48:48;;;;;;;3.42;2.95;;;2.80;71.70;;;;;;5090472;28;20028;-64
2021/04/28 02:51:14;;;;;;;4.07;3.00;;;2.90;70.90;;;;;;5097067;28;20065;-64
2021/04/28 02:53:43;;;;;;;3.90;3.22;;;3.00;71.20;;;;;;5105367;28;20038;-64
2021/04/28 02:56:09;;;;;;;3.47;2.88;;;2.90;71.10;;;;;;5086646;28;20036;-64
2021/04/28 02:58:37;;;;;;;4.03;2.90;;;2.90;71.20;;;;;;5103691;28;20039;-64
2021/04/28 03:01:03;;;;;;;4.13;3.00;;;2.90;71.40;;;;;;5088325;28;20032;-64
2021/04/28 03:03:29;;;;;;;4.05;3.00;;;2.80;71.20;;;;;;5102565;28;20443;-64
2021/04/28 03:05:55;;;;;;;4.65;3.05;;;2.80;71.50;;;;;;5091331;28;20036;-64
2021/04/28 03:08:22;;;;;;;4.63;2.97;;;2.80;71.40;;;;;;5107176;28;20044;-64
2021/04/28 03:10:49;;;;;;;4.05;3.15;;;2.80;71.50;;;;;;5089739;28;20038;-64
2021/04/28 03:13:16;;;;;;;5.18;2.97;;;2.90;71.40;;;;;;5099902;28;20086;-64
2021/04/28 03:15:42;;;;;;;3.35;2.70;;;2.90;71.50;;;;;;5096582;28;20396;-64
2021/04/28 03:18:10;;;;;;;5.05;3.05;;;2.90;71.60;;;;;;5105166;28;20036;-64
2021/04/28 03:20:37;;;;;;;5.32;3.33;;;2.90;72.00;;;;;;5103450;28;20451;-64
2021/04/28 03:23:03;;;;;;;4.22;3.83;;;3.00;72.30;;;;;;5076753;28;20421;-63
2021/04/28 03:25:29;;;;;;;4.47;3.65;;;3.00;71.60;;;;;;5088366;28;20054;-64
2021/04/28 03:27:55;;;;;;;5.50;3.33;;;3.00;71.40;;;;;;5089959;28;20474;-64
2021/04/28 03:30:21;;;;;;;4.70;3.10;;;3.00;71.70;;;;;;5082906;28;20470;-64
2021/04/28 03:32:46;;;;;;;6.45;4.20;;;3.00;72.10;;;;;;5090185;28;20098;-64
2021/04/28 03:35:13;;;;;;;5.57;3.63;;;3.00;72.20;;;;;;5089797;28;20044;-64
2021/04/28 03:37:39;;;;;;;4.85;3.90;;;3.00;71.70;;;;;;5089871;28;20492;-64
2021/04/28 03:40:06;;;;;;;6.70;4.05;;;3.00;71.80;;;;;;5089073;28;20040;-64
2021/04/28 03:42:32;;;;;;;5.75;4.13;;;3.00;71.90;;;;;;5090133;28;20047;-64
2021/04/28 03:44:58;;;;;;;5.35;4.03;;;3.00;72.10;;;;;;5089314;28;20456;-64
2021/04/28 03:47:23;;;;;;;6.47;4.03;;;3.00;72.30;;;;;;5088416;28;20040;-64
2021/04/28 03:49:49;;;;;;;6.45;3.70;;;2.90;72.50;;;;;;5091226;28;20375;-64
2021/04/28 03:52:15;;;;;;;6.15;4.00;;;2.90;72.30;;;;;;5093604;28;20043;-63
2021/04/28 03:54:40;;;;;;;6.32;4.35;;;2.90;73.50;;;;;;5092138;28;20048;-64
2021/04/28 03:57:07;;;;;;;5.18;3.80;;;2.90;73.10;;;;;;5077842;28;20032;-64
2021/04/28 03:59:34;;;;;;;5.10;3.67;;;2.90;73.20;;;;;;5073890;28;20049;-64
2021/04/28 04:02:00;;;;;;;4.10;3.70;;;2.90;73.70;;;;;;5092150;28;20087;-64
2021/04/28 04:04:26;;;;;;;5.30;3.85;;;2.90;73.60;;;;;;5093399;28;20036;-64
2021/04/28 04:06:51;;;;;;;4.55;3.58;;;2.80;73.80;;;;;;5092600;28;20047;-64
2021/04/28 04:09:17;;;;;;;5.72;3.60;;;2.90;73.90;;;;;;5093019;28;20063;-64
2021/04/28 04:11:43;;;;;;;6.65;4.03;;;2.90;74.00;;;;;;5092789;28;20047;-64
2021/04/28 04:14:08;;;;;;;5.03;3.92;;;2.90;74.20;;;;;;5092945;28;20028;-64
2021/04/28 04:16:34;;;;;;;4.63;3.80;;;2.90;73.80;;;;;;5091883;28;20048;-63
2021/04/28 04:19:00;;;;;;;5.05;4.13;;;3.00;74.00;;;;;;5093063;28;20047;-63
2021/04/28 04:21:25;;;;;;;8.00;3.90;;;3.00;74.20;;;;;;5091541;28;20153;-63
2021/04/28 04:23:53;;;;;;;4.25;3.55;;;3.10;74.20;;;;;;5092703;28;20032;-64
2021/04/28 04:26:19;;;;;;;6.85;3.88;;;3.10;73.80;;;;;;5091502;28;20054;-63
2021/04/28 04:28:45;;;;;;;5.22;3.90;;;3.10;73.90;;;;;;5092548;28;20263;-64
2021/04/28 04:31:11;;;;;;;7.43;4.43;;;3.20;73.60;;;;;;5076751;28;20048;-64
2021/04/28 04:33:36;;;;;;;4.20;3.60;;;3.20;73.60;;;;;;5087018;28;20046;-64
2021/04/28 04:36:03;;;;;;;4.45;4.00;;;3.20;73.70;;;;;;5083680;28;20105;-63
2021/04/28 04:38:28;;;;;;;6.10;4.15;;;3.30;73.50;;;;;;5091025;28;20536;-63
2021/04/28 04:40:54;;;;;;;10.82;4.57;;;3.30;73.60;;;;;;5091667;28;20131;-63
2021/04/28 04:43:20;;;;;;;7.28;4.65;;;3.30;73.70;;;;;;5091889;28;20036;-64
2021/04/28 04:45:45;;;;;;;7.05;4.10;;;3.30;73.40;;;;;;5092439;28;20105;-64
2021/04/28 04:48:11;;;;;;;5.95;3.92;;;3.30;73.40;;;;;;5089710;28;20044;-64
2021/04/28 04:50:38;;;;;;;5.55;4.22;;;3.40;73.40;;;;;;5087744;28;20064;-64
2021/04/28 04:53:07;;;;;;;6.30;4.13;;;3.40;73.10;;;;;;5090955;28;20036;-64
2021/04/28 04:55:33;;;;;;;12.52;4.07;;;3.50;73.50;;;;;;5092598;28;20047;-64
2021/04/28 04:57:59;;;;;;;6.50;4.13;;;3.50;73.40;;;;;;5097291;28;20449;-64
2021/04/28 05:00:25;;;;;;;7.82;4.07;;;3.60;73.20;;;;;;5099316;28;20111;-64
2021/04/28 05:02:50;;;;;;;5.65;3.70;;;3.60;72.80;;;;;;5090279;28;20036;-64
2021/04/28 05:05:16;;;;;;;8.30;4.18;;;3.60;72.70;;;;;;5092053;28;20107;-64
2021/04/28 05:07:42;;;;;;;4.57;3.45;;;3.60;72.40;;;;;;5092167;28;20032;-64
2021/04/28 05:10:11;;;;;;;10.35;4.38;;;3.60;72.60;;;;;;5092216;28;20438;-64
2021/04/28 05:12:37;;;;;;;6.07;4.10;;;3.70;72.60;;;;;;5092286;28;20036;-64
2021/04/28 05:15:04;;;;;;;4.90;4.18;;;3.70;72.80;;;;;;5092079;28;20125;-64
2021/04/28 05:17:30;;;;;;;7.18;3.88;;;3.70;72.70;;;;;;5092109;28;20039;-64
2021/04/28 05:19:55;;;;;;;6.90;4.20;;;3.80;72.50;;;;;;5090276;28;20552;-64
2021/04/28 05:22:26;;;;;;;7.63;4.00;;;3.90;73.20;;;;;;5079284;28;20050;-64
2021/04/28 05:24:52;;;;;;;4.70;4.10;;;3.90;72.50;;;;;;5077505;28;20036;-64
2021/04/28 05:27:18;;;;;;;5.07;4.35;;;4.10;72.30;;;;;;5077311;28;20052;-64
2021/04/28 05:29:44;;;;;;;5.45;4.10;;;4.20;72.00;;;;;;5082500;28;20035;-64
2021/04/28 05:32:10;;;;;;;5.88;3.97;;;4.30;71.30;;;;;;5091088;28;20040;-64
2021/04/28 05:34:36;;;;;;;4.55;3.70;;;4.40;71.30;;;;;;5090270;28;20494;-64
2021/04/28 05:37:04;;;;;;;5.28;4.10;;;4.50;70.10;;;;;;5081093;28;20093;-64
2021/04/28 05:39:33;;;;;;;5.18;4.00;;;4.50;70.30;;;;;;5087453;28;20462;-64
2021/04/28 05:41:59;;;;;;;4.43;3.67;;;4.80;70.10;;;;;;5090769;28;20437;-64
2021/04/28 05:44:24;;;;;;;4.90;3.90;;;5.40;69.00;;;;;;5089916;28;20036;-64
2021/04/28 05:46:50;;;;;;;6.78;4.00;;;5.50;68.60;;;;;;5079816;28;20093;-64
2021/04/28 05:49:16;;;;;;;5.63;3.90;;;6.60;65.20;;;;;;5090024;28;20089;-64
2021/04/28 05:51:42;;;;;;;3.83;3.42;;;8.10;62.50;;;;;;5091155;28;20507;-64
2021/04/28 05:54:08;;;;;;;5.03;3.50;;;9.40;59.30;;;;;;5105746;28;20389;-62
2021/04/28 05:56:37;;;;;;;3.90;3.50;;;10.80;54.10;;;;;;5089121;28;20040;-62
2021/04/28 05:59:03;;;;;;;4.40;3.10;;;11.60;51.50;;;;;;5089634;28;20135;-62
2021/04/28 06:01:29;;;;;;;3.83;3.22;;;12.40;51.10;;;;;;5097319;28;20126;-62
2021/04/28 06:03:54;;;;;;;6.43;3.45;;;13.20;48.20;;;;;;5096126;28;20152;-62
2021/04/28 06:06:20;;;;;;;4.75;3.20;;;13.70;46.10;;;;;;5091994;28;20456;-62
2021/04/28 06:08:46;;;;;;;3.80;3.22;;;14.30;45.60;;;;;;5089022;28;20040;-63
2021/04/28 06:11:11;;;;;;;3.50;3.20;;;14.30;42.00;;;;;;5088066;28;20040;-62
2021/04/28 06:13:37;;;;;;;6.47;3.20;;;14.50;43.50;;;;;;5087628;28;20032;-62
2021/04/28 06:16:03;;;;;;;4.07;3.22;;;14.90;42.50;;;;;;5090160;28;20043;-66
2021/04/28 06:18:28;;;;;;;3.88;3.15;;;14.70;38.40;;;;;;5096858;28;20159;-66
2021/04/28 06:20:54;;;;;;;5.88;3.22;;;15.40;42.40;;;;;;5094659;28;20195;-66
2021/04/28 06:23:20;;;;;;;6.72;3.33;;;15.20;38.20;;;;;;5094562;28;20113;-66
2021/04/28 06:25:46;;;;;;;4.80;3.03;;;16.00;41.30;;;;;;5090414;28;20473;-66
2021/04/28 06:28:12;;;;;;;3.88;3.42;;;16.40;39.20;;;;;;5088142;28;20040;-66
2021/04/28 06:30:37;;;;;;;7.30;3.65;;;16.50;37.30;;;;;;5087676;28;20043;-67
2021/04/28 06:33:03;;;;;;;4.30;3.53;;;16.40;37.60;;;;;;5090021;28;20520;-66
2021/04/28 06:35:28;;;;;;;6.90;3.90;;;16.40;37.80;;;;;;5089728;28;20466;-67
2021/04/28 06:37:55;;;;;;;4.75;3.40;;;15.70;33.70;;;;;;5078933;28;20032;-67
2021/04/28 06:40:22;;;;;;;4.85;3.70;;;16.60;37.20;;;;;;5093360;28;20036;-70
2021/04/28 06:42:47;;;;;;;5.95;3.75;;;17.10;37.40;;;;;;5088806;28;20054;-69
2021/04/28 06:45:13;;;;;;;5.55;3.53;;;17.20;33.00;;;;;;5089781;28;20139;-67
2021/04/28 06:47:39;;;;;;;4.55;4.00;;;17.40;36.30;;;;;;5069481;28;20032;-67
2021/04/28 06:50:05;;;;;;;4.63;3.30;;;17.70;37.00;;;;;;5087862;28;20028;-67
2021/04/28 06:52:31;;;;;;;4.45;3.53;;;17.30;33.80;;;;;;5090374;28;20075;-67
2021/04/28 06:54:56;;;;;;;4.25;3.85;;;17.20;33.40;;;;;;5089876;28;20160;-67
2021/04/28 06:57:22;;;;;;;5.30;3.45;;;17.40;34.90;;;;;;5089162;28;20036;-67
2021/04/28 06:59:47;;;;;;;5.65;3.58;;;17.60;34.20;;;;;;5090420;28;20040;-67
2021/04/28 07:02:13;;;;;;;6.32;3.88;;;17.40;34.70;;;;;;5088570;28;20328;-67
2021/04/28 07:04:39;;;;;;;4.78;3.85;;;18.20;35.20;;;;;;5089949;28;20036;-67
2021/04/28 07:07:04;;;;;;;4.40;3.80;;;17.10;31.90;;;;;;5090058;28;20050;-67
2021/04/28 07:09:30;;;;;;;4.05;3.50;;;18.20;34.00;;;;;;5090464;28;20039;-67
2021/04/28 07:11:55;;;;;;;4.68;3.63;;;17.70;31.40;;;;;;5089681;28;20036;-67
2021/04/28 07:14:21;;;;;;;4.70;4.22;;;18.40;32.90;;;;;;5096188;28;20032;-67
2021/04/28 07:16:47;;;;;;;5.60;4.45;;;17.30;32.40;;;;;;5084722;28;20039;-67
2021/04/28 07:19:12;;;;;;;4.60;4.00;;;15.10;33.90;;;;;;5079578;28;20048;-67
2021/04/28 07:21:38;;;;;;;5.72;4.05;;;16.30;35.90;;;;;;5087399;28;20089;-67
2021/04/28 07:24:04;;;;;;;3.90;3.60;;;16.50;35.70;;;;;;5091168;28;20047;-67
2021/04/28 07:26:31;;;;;;;4.50;3.70;;;15.70;34.70;;;;;;5087045;28;20476;-67
2021/04/28 07:28:57;;;;;;;5.60;4.40;;;15.80;36.60;;;;;;5094189;28;20040;-67
2021/04/28 07:31:23;;;;;;;7.75;4.43;;;14.70;35.00;;;;;;5093661;28;20128;-67
2021/04/28 07:33:49;;;;;;;4.50;4.10;;;16.20;34.50;;;;;;5087782;28;20550;-66
2021/04/28 07:36:15;;;;;;;6.38;4.20;;;17.00;33.60;;;;;;5093580;28;20039;-66
2021/04/28 07:38:42;;;;;;;5.68;4.15;;;16.10;35.60;;;;;;5082268;28;20051;-67
2021/04/28 07:41:08;;;;;;;5.90;4.57;;;17.10;33.90;;;;;;5099686;28;20093;-67
2021/04/28 07:43:33;;;;;;;5.30;3.85;;;15.50;36.00;;;;;;5103573;28;20121;-67
2021/04/28 07:45:59;;;;;;;7.47;4.13;;;16.30;37.00;;;;;;5101307;28;20473;-66
2021/04/28 07:48:26;;;;;;;5.85;4.38;;;17.00;35.20;;;;;;5096676;28;20404;-66
2021/04/28 07:50:52;;;;;;;6.50;4.20;;;16.50;33.00;;;;;;5087556;28;20122;-65
2021/04/28 07:53:17;;;;;;;4.88;4.05;;;15.50;35.20;;;;;;5093589;28;20044;-66
2021/04/28 07:55:46;;;;;;;4.75;4.20;;;14.20;37.70;;;;;;5072989;28;20050;-66
2021/04/28 07:58:18;;;;;;;5.63;4.10;;;13.90;38.70;;;;;;5088368;28;20115;-66
2021/04/28 08:00:44;;;;;;;4.50;4.07;;;12.60;39.90;;;;;;5093345;28;20501;-66
2021/04/28 08:03:10;;;;;;;6.75;3.92;;;13.00;43.60;;;;;;5092367;28;20127;-65
2021/04/28 08:05:36;;;;;;;5.47;4.15;;;12.90;43.80;;;;;;5091890;28;20032;-65
2021/04/28 08:08:03;;;;;;;4.95;4.22;;;13.00;43.30;;;;;;5090809;28;20082;-65
2021/04/28 08:10:28;;;;;;;5.43;4.50;;;13.00;43.20;;;;;;5091596;28;20036;-65
2021/04/28 08:12:54;;;;;;;5.07;4.57;;;12.80;42.20;;;;;;5091702;28;20040;-66
2021/04/28 08:15:20;;;;;;;5.78;4.28;;;12.70;44.30;;;;;;5091647;28;20119;-66
2021/04/28 08:17:46;;;;;;;5.75;4.30;;;12.70;44.60;;;;;;5093111;28;20040;-65
2021/04/28 08:20:13;;;;;;;8.82;4.82;;;12.90;44.00;;;;;;5092713;28;20439;-66
2021/04/28 08:22:38;;;;;;;7.07;4.95;;;13.00;42.80;;;;;;5092635;28;20088;-65
2021/04/28 08:25:07;;;;;;;5.22;4.72;;;12.60;42.10;;;;;;5092642;28;20425;-65
2021/04/28 08:27:32;;;;;;;5.30;4.80;;;12.30;43.90;;;;;;5089928;28;20405;-66
2021/04/28 08:29:58;;;;;;;4.55;4.15;;;12.30;43.40;;;;;;5080201;28;20058;-66
2021/04/28 08:32:24;;;;;;;6.60;4.63;;;12.50;45.20;;;;;;5092613;28;20036;-66
2021/04/28 08:34:50;;;;;;;6.03;4.25;;;12.70;44.40;;;;;;5092531;28;20032;-65
2021/04/28 08:37:15;;;;;;;5.20;4.55;;;12.80;45.00;;;;;;5092958;28;20111;-66
2021/04/28 08:39:42;;;;;;;6.53;5.00;;;12.80;44.00;;;;;;5092515;28;20032;-66
2021/04/28 08:42:08;;;;;;;8.35;4.85;;;13.00;44.90;;;;;;5092510;28;20148;-66
2021/04/28 08:44:35;;;;;;;7.80;5.32;;;13.10;43.20;;;;;;5090266;28;20028;-62
2021/04/28 08:47:01;;;;;;;5.97;5.03;;;13.20;43.80;;;;;;5092577;28;20114;-63
2021/04/28 08:49:26;;;;;;;5.43;4.57;;;13.00;43.20;;;;;;5092568;28;20028;-63
2021/04/28 08:51:52;;;;;;;6.15;4.68;;;12.90;42.10;;;;;;5091222;28;20038;-62
2021/04/28 08:54:19;;;;;;;8.07;5.07;;;13.20;44.20;;;;;;5092200;28;20042;-64
2021/04/28 08:56:54;;;;;;;9.50;5.22;;;13.20;43.00;;;;;;5090589;28;20039;-62
2021/04/28 08:59:20;;;;;;;7.30;4.88;;;13.30;42.10;;;;;;5090401;28;20051;-63
2021/04/28 09:01:47;;;;;;;5.45;4.95;;;13.50;44.10;;;;;;5087878;28;20037;-62
2021/04/28 09:04:15;;;;;;;6.20;5.00;;;13.40;42.20;;;;;;5082547;28;20044;-62
2021/04/28 09:06:41;;;;;;;6.30;5.07;;;13.80;43.70;;;;;;5084730;28;20550;-62
2021/04/28 09:09:07;;;;;;;5.60;4.78;;;13.90;40.10;;;;;;5091460;28;20028;-62
2021/04/28 09:11:36;;;;;;;6.60;4.70;;;13.90;42.70;;;;;;5092059;28;20400;-62
2021/04/28 09:14:13;;;;;;;6.45;4.40;;;14.10;39.80;;;;;;5091476;28;20067;-62
2021/04/28 09:16:41;;;;;;;7.15;4.60;;;14.30;42.10;;;;;;5091378;28;20067;-62
2021/04/28 09:19:19;;;;;;;6.63;5.18;;;14.40;40.90;;;;;;5084746;28;20044;-63
2021/04/28 09:21:59;;;;;;;6.00;4.88;;;13.90;38.70;;;;;;5086484;28;20173;-63
2021/04/28 09:24:30;;;;;;;6.07;5.25;;;14.00;38.50;;;;;;5091455;28;20032;-66
2021/04/28 09:26:58;;;;;;;9.32;4.70;;;14.20;40.30;;;;;;5089432;28;20097;-67
2021/04/28 09:29:32;;;;;;;7.50;5.20;;;14.50;40.90;;;;;;5091820;28;20044;-66
2021/04/28 09:32:00;;;;;;;6.57;5.13;;;14.60;38.00;;;;;;5088842;28;20035;-67
2021/04/28 09:34:38;;;;;;;6.30;4.82;;;14.20;36.90;;;;;;5087815;28;20043;-66
2021/04/28 09:37:12;;;;;;;6.13;4.85;;;14.50;37.70;;;;;;5091645;28;20064;-66
2021/04/28 09:39:43;;;;;;;7.00;4.93;;;14.50;37.30;;;;;;5091314;28;20036;-66
2021/04/28 09:42:10;;;;;;;;;;;14.90;38.90;;;;;;5092155;28;20282;-66
2021/04/28 09:44:37;;;;;;;6.70;4.65;;;15.00;40.40;;;;;;5088102;28;19982;-66
2021/04/28 09:47:19;;;;;;;7.68;5.20;;;14.50;35.30;;;;;;5090672;28;20044;-66
2021/04/28 09:49:49;;;;;;;7.60;4.77;;;14.90;35.60;;;;;;5091050;28;20032;-66
2021/04/28 09:52:37;;;;;;;6.15;4.80;;;14.90;37.90;;;;;;5086876;28;20044;-66
2021/04/28 09:55:14;;;;;;;6.72;4.88;;;14.40;35.70;;;;;;5090932;28;20507;-66
2021/04/28 09:57:45;;;;;;;5.72;4.55;;;14.90;38.50;;;;;;5090197;28;20366;-67
2021/04/28 10:00:28;;;;;;;6.93;4.85;;;15.00;39.80;;;;;;5091482;28;20101;-66
2021/04/28 10:03:02;;;;;;;9.18;4.90;;;15.30;37.50;;;;;;5089891;28;20519;-66
2021/04/28 10:05:29;;;;;;;7.93;5.68;;;15.50;36.50;;;;;;5091522;28;20036;-67
2021/04/28 10:08:16;;;;;;;7.53;5.15;;;15.60;36.30;;;;;;5091089;28;20147;-66
2021/04/28 10:10:42;;;;;;;7.55;5.55;;;15.50;36.80;;;;;;5088856;28;20043;-66
2021/04/28 10:13:08;;;;;;;7.57;5.45;;;15.20;37.90;;;;;;5091489;28;20100;-66
2021/04/28 10:15:36;;;;;;;6.50;5.28;;;15.40;38.00;;;;;;5091379;28;20028;-65
2021/04/28 10:18:09;;;;;;;9.80;5.35;;;15.60;37.10;;;;;;5091273;28;20039;-67
2021/04/28 10:20:37;;;;;;;8.65;5.35;;;15.50;33.70;;;;;;5089618;28;20163;-66
2021/04/28 10:23:11;;;;;;;7.05;5.95;;;15.50;34.80;;;;;;5090902;28;20405;-66
2021/04/28 10:25:38;;;;;;;8.30;5.90;;;15.60;34.70;;;;;;5090530;28;20461;-67
2021/04/28 10:28:06;;;;;;;6.18;5.45;;;15.60;34.90;;;;;;5080129;28;20032;-66
2021/04/28 10:30:37;;;;;;;5.90;5.30;;;15.70;35.30;;;;;;5090280;28;20036;-69
2021/04/28 10:33:05;;;;;;;8.07;5.93;;;15.70;36.40;;;;;;5090779;28;20089;-67
2021/04/28 10:35:32;;;;;;;7.15;5.50;;;15.90;34.90;;;;;;5090361;28;20040;-66
2021/04/28 10:37:59;;;;;;;8.35;5.95;;;15.80;35.40;;;;;;5086105;28;20036;-66
2021/04/28 10:40:27;;;;;;;8.00;6.30;;;15.70;36.30;;;;;;5078422;22;20043;-67
2021/04/28 10:43:05;;;;;;;6.75;5.93;;;15.90;34.90;;;;;;5075991;28;20090;-67
2021/04/28 10:45:37;;;;;;;8.70;6.80;;;15.80;32.80;;;;;;5087687;28;20032;-67
2021/04/28 10:48:02;;;;;;;;;;;15.80;35.20;;;;;;5090957;28;20040;-67
2021/04/28 10:50:39;;;;;;;6.53;5.85;;;16.00;37.40;;;;;;5089879;28;19964;-67
2021/04/28 10:53:16;;;;;;;7.03;5.97;;;16.20;35.30;;;;;;5084670;28;20384;-67
2021/04/28 10:55:54;;;;;;;7.45;6.75;;;16.40;34.80;;;;;;5086975;28;20036;-67
2021/04/28 10:58:29;;;;;;;8.27;6.75;;;16.40;34.00;;;;;;5086475;28;20036;-67
2021/04/28 11:01:01;;;;;;;9.02;6.93;;;16.30;33.90;;;;;;5076279;28;20027;-67
2021/04/28 11:03:48;;;;;;;8.98;6.70;;;16.30;33.70;;;;;;5093143;28;20040;-67
2021/04/28 11:06:26;;;;;;;7.70;7.00;;;16.00;32.40;;;;;;5099516;28;20051;-68
2021/04/28 11:09:00;;;;;;;8.32;6.35;;;16.10;33.90;;;;;;5086516;28;20043;-68
2021/04/28 11:11:32;;;;;;;8.55;7.15;;;16.20;34.50;;;;;;5102759;28;20047;-68
2021/04/28 11:14:23;;;;;;;8.07;7.25;;;15.80;31.60;;;;;;5083128;28;20044;-70
2021/04/28 11:16:56;;;;;;;8.15;7.25;;;15.90;33.90;;;;;;5082060;28;20115;-67
2021/04/28 11:19:38;;;;;;;9.55;7.13;;;16.00;35.10;;;;;;5098985;28;20434;-67
2021/04/28 11:22:16;;;;;;;7.75;6.95;;;16.20;33.90;;;;;;5089129;28;20077;-70
2021/04/28 11:24:51;;;;;;;8.52;6.55;;;16.30;34.70;;;;;;5071471;28;20420;-68
2021/04/28 11:27:42;;;;;;;7.97;7.03;;;16.40;33.30;;;;;;5091728;28;20115;-68
2021/04/28 11:30:24;;;;;;;8.23;7.50;;;16.00;33.30;;;;;;5092563;28;20413;-68
2021/04/28 11:33:11;;;;;;;8.00;7.20;;;16.10;34.80;;;;;;5088899;28;20114;-68
2021/04/28 11:35:42;;;;;;;7.90;7.20;;;15.70;33.00;;;;;;5088901;28;20508;-67
2021/04/28 11:38:13;;;;;;;11.00;7.40;;;15.70;33.90;;;;;;5094199;28;20043;-69
2021/04/28 11:41:02;;;;;;;8.85;7.95;;;16.10;34.00;;;;;;5094081;28;20071;-67
2021/04/28 11:43:31;;;;;;;8.15;7.45;;;16.30;33.00;;;;;;5089376;28;20098;-67
2021/04/28 11:46:02;;;;;;;8.07;7.28;;;16.20;33.60;;;;;;5089344;28;20036;-68
2021/04/28 11:48:30;;;;;;;9.93;7.38;;;15.80;34.30;;;;;;5109205;28;20036;-67
2021/04/28 11:50:59;;;;;;;7.90;7.20;;;16.00;32.10;;;;;;5083059;28;20036;-67
2021/04/28 11:53:26;;;;;;;8.77;7.88;;;16.40;34.50;;;;;;5087264;28;20066;-67
2021/04/28 11:55:52;;;;;;;9.18;8.02;;;16.30;32.80;;;;;;5088537;28;20040;-67
2021/04/28 11:58:19;;;;;;;9.02;8.13;;;16.10;32.30;;;;;;5089335;28;20130;-67
2021/04/28 12:00:44;;;;;;;8.45;7.53;;;15.80;32.20;;;;;;5067494;28;20123;-67
2021/04/28 12:03:10;;;;;;;8.90;6.85;;;15.70;34.00;;;;;;5082339;28;20115;-67
2021/04/28 12:05:36;;;;;;;8.07;7.30;;;16.00;36.00;;;;;;5088516;28;20122;-67
2021/04/28 12:08:04;;;;;;;7.95;7.15;;;16.30;33.50;;;;;;5083956;28;20454;-67
2021/04/28 12:10:30;;;;;;;8.88;7.75;;;16.40;34.00;;;;;;5089399;28;20426;-68
2021/04/28 12:12:55;;;;;;;8.70;7.80;;;16.60;35.00;;;;;;5093076;28;20036;-67
2021/04/28 12:15:21;;;;;;;8.90;7.95;;;16.90;35.60;;;;;;5093259;28;20085;-66
2021/04/28 12:17:49;;;;;;;10.80;8.15;;;16.90;34.40;;;;;;5093254;28;20044;-67
2021/04/28 12:20:17;;;;;;;8.43;7.63;;;17.00;34.80;;;;;;5093028;28;20127;-67
2021/04/28 12:22:43;;;;;;;8.40;7.70;;;16.60;32.80;;;;;;5092999;28;20064;-67
2021/04/28 12:25:11;;;;;;;9.65;7.22;;;16.50;33.50;;;;;;5092844;28;20059;-69
2021/04/28 12:27:41;;;;;;;11.27;8.68;;;16.70;34.90;;;;;;5073984;28;20373;-67
2021/04/28 12:30:22;;;;;;;10.68;8.90;;;16.50;32.70;;;;;;5092888;28;20469;-66
2021/04/28 12:32:52;;;;;;;9.20;8.30;;;16.10;33.20;;;;;;5093140;28;20040;-66
2021/04/28 12:35:23;;;;;;;9.88;8.52;;;15.80;33.00;;;;;;5092844;28;20040;-67
2021/04/28 12:38:05;;;;;;;9.25;8.35;;;15.70;33.40;;;;;;5092597;28;20040;-67
2021/04/28 12:40:35;;;;;;;11.63;8.43;;;15.60;33.20;;;;;;5092461;28;20044;-66
2021/04/28 12:43:01;;;;;;;8.30;7.50;;;15.70;33.70;;;;;;5092569;28;20047;-68
2021/04/28 12:45:28;;;;;;;10.73;8.82;;;16.00;35.80;;;;;;5092648;28;20126;-69
2021/04/28 12:48:05;;;;;;;9.15;8.30;;;15.80;34.30;;;;;;5074752;28;20036;-67
2021/04/28 12:50:33;;;;;;;9.82;8.90;;;16.10;35.80;;;;;;5092692;28;20253;-67
2021/04/28 12:53:08;;;;;;;9.43;7.28;;;16.20;34.30;;;;;;5092385;28;20113;-67
2021/04/28 12:55:41;;;;;;;10.32;8.73;;;16.60;34.80;;;;;;5091119;28;20036;-67
2021/04/28 12:58:12;;;;;;;9.52;8.45;;;17.00;34.60;;;;;;5087689;28;20032;-67